Urb Levittown Lakes, Puerto Rico
Current Conditions -  °F | °C
As of 7:55 AM on Wednesday 26 Nov 2014 (Local Time) from TJIG Reporting Station
Light Rain Light Rain  
Wind Chill: 75°   Ceiling: 2500
Heat Index: 75°   Visibility: 8mi
Dew Point: 72°   Wind: 12mph
Humidity: 89%   Direction: 160°SSE
Pressure: 30.06"   Gusts: NA
Location:  18.4519°N, 66.1817°W
Report Text: TJIG 261155Z 16010KT 8SM -RA SCT015 BKN025 24/22 A3006 RMK RY09 IN USE ATIS B
Loading
Personal Weather Stations






























Interactive Weather Map New forecast layout! Learn more

10-Day Weather Forecast

Advertisements
Track Severe Weather on mobile